MMMX/MEX METAR and TAF weather

Enter ICAO airport designator
Station Type Date Time Source
MMMX METAR 2021/02/25 02:21 UTC NOAA

MMMX 250221Z 01007KT 9SM FEW220 20/M13 A3030 NOSIG RMK 8/001 HZY


Station Type Date Time Source
MMMX Decoded METAR 2021/02/25 02:21 UTC NOAA

Mexico City / Licenci, Mexico (MMMX) 19-26N 099-06W
Feb 24, 2021 - 09:21 PM EST / 2021.02.25 0221 UTC
Wind: from the N (010 degrees) at 8 MPH (7 KT):0
Visibility: 9 mile(s):0
Sky conditions: mostly clear
Temperature: 68 F (20 C)
Dew Point: 8 F (-13 C)
Relative Humidity: 9%
Pressure (altimeter): 30.3 in. Hg (1026 hPa)
ob: MMMX 250221Z 01007KT 9SM FEW220 20/M13 A3030 NOSIG RMK 8/001 HZY
cycle: 2

Station Type Date Time Source
MMMX TAF 2021/02/24 18:36 UTC NOAA

TAF MMMX 241632Z 2418/2524 34012KT P6SM SCT120 SCT230 TX25/2420Z TN10/2512Z
BECMG 2501/2502 00000KT
FM251700 03010KT P6SM SKC

Example: see airport list